Terminal Aerodrome Forecast
Issued by NWS

Home | Current Version | Previous Version | Text Only | Print | Product List | Glossary On
Versions: 1 2 3 4 5 6 7 8 9 10 11 12 13 14 15 16 17 18 19 20 21
000
FTAK31 PANC 250520
TAFAGK
TAF
PAGK 250520Z 2506/2606 16014G22KT P6SM BKN060
     FM251000 16010KT P6SM BKN080
     FM252100 16007KT P6SM SCT080 BKN150=

USA.gov is the U.S. government's official web portal to all federal, state and local government web resources and services.